Point Mugu, CA

8:11 PM PST on December 09, 2016 (GMT -0800)
Point Mugu Naval Air Station | | Change Station

Elev 13 ft 34.12 °N, 119.12 °W | Updated 15 minutes ago

Light Drizzle
Light Drizzle Mist
62 °F
Feels Like 62 °F
N
5
Wind Variable Wind from Variable

Today
High -- | Low -- °F
--% Chance of Precip.
Yesterday
High -- | Low -- °F
Precip. -- in
Pressure 30.17 in
Visibility 4.0 miles
Clouds Scattered Clouds 300 ft
Overcast 600 ft
Dew Point 58 °F
Humidity 86%
Rainfall 0.00 in
Snow Depth Not available.
6:51 AM 4:47 PM
Waxing Gibbous, 80% visible
METAR KNTD 100356Z VRB04KT 4SM -DZ BR SCT003 OVC006 17/14 A3017 RMK AO2 DZB40 SLP216 VIS SW-NW 2 1/2 T01670144 PNO $
Pressure 30.17 in
Visibility 4.0 miles
Clouds Scattered Clouds 300 ft
Overcast 600 ft
Dew Point 58 °F
Humidity 86%
Rainfall 0.00 in
Snow Depth Not available.
6:51 AM 4:47 PM
Waxing Gibbous, 80% visible
METAR KNTD 100356Z VRB04KT 4SM -DZ BR SCT003 OVC006 17/14 A3017 RMK AO2 DZB40 SLP216 VIS SW-NW 2 1/2 T01670144 PNO $

10-Day Weather Forecast

Almanac

Astronomy

Dec. 09, 2016 Rise Set
Actual Time
Civil Twilight
Nautical Twilight
Astronomical Twilight
Moon
Length of Visible Light
Length of Day
Tomorrow will be .
, % of the Moon is Illuminated

Today's Extremes

State Highs State Lows

Community

WunderPhotos

Upload Photos

1,956,529 photos uploaded!

WunderBlog® & News

Nearby

Air Quality

  Air Quality AQ Index Pollutant
Not available.

Snow Depth

Station Depth Elevation

Earthquake Activity

City Distance Mag. Time & Date
Minimum magnitude displayed is 2.5.

Coastal Water Temperatures

Place Temperature

Stations

Nearby Weather Stations

Station Location Temp. Windchill Dew Point Humidity Wind Precip. Elev Updated Type
                   

Watches & Warnings

There are currently no watches in effect.